createdAt,value
2022-09-11T00:00:39.260Z,9.711796
2022-09-11T00:01:39.293Z,9.711746
2022-09-11T00:02:39.400Z,9.711656
2022-09-11T00:03:39.223Z,9.711715
2022-09-11T00:04:39.235Z,9.711791
2022-09-11T00:05:39.219Z,9.711622
2022-09-11T00:06:39.212Z,9.711635
2022-09-11T00:07:39.193Z,9.711759
2022-09-11T00:08:39.241Z,9.711780
2022-09-11T00:09:39.217Z,9.711788
2022-09-11T00:10:39.175Z,9.711784
2022-09-11T00:11:39.164Z,9.711760
2022-09-11T00:12:39.156Z,9.711720
2022-09-11T00:13:39.163Z,9.711742
2022-09-11T00:14:39.142Z,9.711740
2022-09-11T00:15:39.142Z,9.711827
2022-09-11T00:16:39.128Z,9.711734
2022-09-11T00:17:39.134Z,9.711732
2022-09-11T00:18:39.109Z,9.711764
2022-09-11T00:19:39.104Z,9.711760
2022-09-11T00:20:39.091Z,9.711843
2022-09-11T00:21:39.101Z,9.711791
2022-09-11T00:22:39.078Z,9.712095
2022-09-11T00:23:39.148Z,9.711379
2022-09-11T00:24:40.035Z,9.712319
2022-09-11T00:25:39.065Z,9.712395
2022-09-11T00:26:39.047Z,9.712277
2022-09-11T00:27:39.036Z,9.712339
2022-09-11T00:28:39.043Z,9.711581
2022-09-11T00:29:39.658Z,9.711970
2022-09-11T00:33:33.012Z,9.712331
2022-09-11T00:34:32.977Z,9.712551
2022-09-11T00:35:32.971Z,9.712063
2022-09-11T00:36:32.951Z,9.711912
2022-09-11T00:37:32.951Z,9.711805
2022-09-11T00:38:32.937Z,9.711815
2022-09-11T00:39:32.930Z,9.711809
2022-09-11T00:40:32.928Z,9.711890
2022-09-11T00:41:32.916Z,9.711885
2022-09-11T00:42:32.910Z,9.711806
2022-09-11T00:43:32.942Z,9.711704
2022-09-11T00:44:32.888Z,9.711643
2022-09-11T00:45:33.811Z,9.711649
2022-09-11T00:46:32.884Z,9.711659
2022-09-11T00:47:32.864Z,9.711575
2022-09-11T00:48:32.866Z,9.711634
2022-09-11T00:49:32.848Z,9.711808
2022-09-11T00:50:32.846Z,9.711832
2022-09-11T00:51:32.841Z,9.711840
2022-09-11T00:52:32.838Z,9.711707
2022-09-11T00:53:32.814Z,9.711525
2022-09-11T00:54:32.803Z,9.711478
2022-09-11T00:55:32.794Z,9.711743
2022-09-11T00:56:32.783Z,9.711725
2022-09-11T00:57:32.801Z,9.711684
2022-09-11T00:58:32.774Z,9.711745
2022-09-11T00:59:32.775Z,9.711573
2022-09-11T01:00:32.805Z,9.711474
2022-09-11T01:01:32.826Z,9.711566
2022-09-11T01:02:32.764Z,9.711312
2022-09-11T01:03:32.743Z,9.711312
2022-09-11T01:04:32.720Z,9.710941
2022-09-11T01:05:32.734Z,9.711029
2022-09-11T01:06:32.728Z,9.711361
2022-09-11T01:07:32.707Z,9.711451
2022-09-11T01:08:36.529Z,9.712025
2022-09-11T01:09:34.686Z,9.712129
2022-09-11T01:10:32.692Z,9.711432
2022-09-11T01:11:32.713Z,9.711423
2022-09-11T01:12:32.677Z,9.711133
2022-09-11T01:13:32.727Z,9.711031
2022-09-11T01:14:34.600Z,9.711080
2022-09-11T01:15:33.647Z,9.711193
2022-09-11T01:16:32.677Z,9.711444
2022-09-11T01:17:32.620Z,9.711185
2022-09-11T01:18:32.619Z,9.711362
2022-09-11T01:19:32.622Z,9.711487
2022-09-11T01:20:32.603Z,9.711609
2022-09-11T01:21:34.634Z,9.711374
2022-09-11T01:22:33.590Z,9.711307
2022-09-11T01:23:32.608Z,9.711407
2022-09-11T01:24:32.578Z,9.711434
2022-09-11T01:25:32.571Z,9.711695
2022-09-11T01:26:32.555Z,9.712131
2022-09-11T01:27:32.543Z,9.711433
2022-09-11T01:28:32.536Z,9.711496
2022-09-11T01:29:32.526Z,9.711574
2022-09-11T01:30:32.521Z,9.711596
2022-09-11T01:31:32.568Z,9.711449
2022-09-11T01:32:32.514Z,9.711474
2022-09-11T01:33:32.493Z,9.711465
2022-09-11T01:34:32.497Z,9.711665
2022-09-11T01:35:32.494Z,9.711720
2022-09-11T01:36:32.479Z,9.711711
2022-09-11T01:37:32.468Z,9.711676
2022-09-11T01:38:32.458Z,9.711637
2022-09-11T01:39:32.446Z,9.711646
2022-09-11T01:40:32.449Z,9.711674
2022-09-11T01:41:32.437Z,9.711629
2022-09-11T01:42:32.416Z,9.711616
2022-09-11T01:43:32.532Z,9.711605
2022-09-11T01:44:32.410Z,9.711607
2022-09-11T01:45:32.430Z,9.711624
2022-09-11T01:46:32.397Z,9.711644
2022-09-11T01:47:32.388Z,9.711676
2022-09-11T01:48:32.370Z,9.711592
2022-09-11T01:49:32.364Z,9.711601
2022-09-11T01:50:32.357Z,9.711606
2022-09-11T01:51:32.353Z,9.711642
2022-09-11T01:52:32.339Z,9.711649
2022-09-11T01:53:32.410Z,9.711658
2022-09-11T01:54:32.334Z,9.711640
2022-09-11T01:55:32.325Z,9.711649
2022-09-11T01:56:32.315Z,9.711638
2022-09-11T01:57:32.302Z,9.711652
2022-09-11T01:58:32.290Z,9.711649
2022-09-11T01:59:32.312Z,9.711666
2022-09-11T02:00:32.373Z,9.711664
2022-09-11T02:01:32.290Z,9.711635
2022-09-11T02:02:32.257Z,9.711607
2022-09-11T02:03:32.268Z,9.711629
2022-09-11T02:04:32.242Z,9.711657
2022-09-11T02:05:32.237Z,9.711674
2022-09-11T02:06:32.226Z,9.711639
2022-09-11T02:07:32.228Z,9.711617
2022-09-11T02:08:32.247Z,9.711628
2022-09-11T02:09:32.214Z,9.711625
2022-09-11T02:10:32.199Z,9.711664
2022-09-11T02:11:32.195Z,9.711637
2022-09-11T02:12:32.216Z,9.711690
2022-09-11T02:13:32.179Z,9.711601
2022-09-11T02:14:32.196Z,9.711620
2022-09-11T02:15:32.151Z,9.711712
2022-09-11T02:16:32.161Z,9.711692
2022-09-11T02:17:32.170Z,9.711630
2022-09-11T02:18:32.129Z,9.711591
2022-09-11T02:19:32.129Z,9.711571
2022-09-11T02:20:32.125Z,9.711557
2022-09-11T02:21:32.109Z,9.711554
2022-09-11T02:22:32.108Z,9.711639
2022-09-11T02:23:32.107Z,9.711641
2022-09-11T02:24:33.102Z,9.711629
2022-09-11T02:25:32.089Z,9.711623
2022-09-11T02:26:32.075Z,9.711611
2022-09-11T02:27:32.071Z,9.711628
2022-09-11T02:28:32.054Z,9.711632
2022-09-11T02:29:32.051Z,9.711616
2022-09-11T02:30:32.036Z,9.711615
2022-09-11T02:31:32.093Z,9.711619
2022-09-11T02:32:32.023Z,9.711644
2022-09-11T02:33:32.040Z,9.711686
2022-09-11T02:34:32.008Z,9.711609
2022-09-11T02:35:32.069Z,9.711614
2022-09-11T02:36:32.013Z,9.711655
2022-09-11T02:37:31.986Z,9.711647
2022-09-11T02:38:31.974Z,9.711642
2022-09-11T02:39:31.984Z,9.711602
2022-09-11T02:40:31.972Z,9.711636
2022-09-11T02:41:31.977Z,9.711654
2022-09-11T02:42:31.949Z,9.711630
2022-09-11T02:43:31.943Z,9.711708
2022-09-11T02:44:31.965Z,9.711608
2022-09-11T02:45:31.967Z,9.711653
2022-09-11T02:46:31.918Z,9.711556
2022-09-11T02:47:31.914Z,9.711617
2022-09-11T02:48:31.897Z,9.711450
2022-09-11T02:49:31.888Z,9.711715
2022-09-11T02:50:31.892Z,9.711785
2022-09-11T02:51:31.889Z,9.711622
2022-09-11T02:52:31.881Z,9.711720
2022-09-11T02:53:31.875Z,9.711679
2022-09-11T02:54:32.856Z,9.711878
2022-09-11T02:55:31.856Z,9.711766
2022-09-11T02:56:31.844Z,9.711770
2022-09-11T02:57:31.860Z,9.711753
2022-09-11T02:58:31.830Z,9.711349
2022-09-11T02:59:31.811Z,9.711366
2022-09-11T03:00:31.862Z,9.711492
2022-09-11T03:01:31.845Z,9.711603
2022-09-11T03:02:31.795Z,9.711651
2022-09-11T03:03:31.796Z,9.711762
2022-09-11T03:04:31.774Z,9.711733
2022-09-11T03:05:31.777Z,9.711850
2022-09-11T03:06:31.776Z,9.711608
2022-09-11T03:07:31.764Z,9.711689
2022-09-11T03:08:31.753Z,9.711651
2022-09-11T03:09:31.730Z,9.711800
2022-09-11T03:10:31.739Z,9.711719
2022-09-11T03:11:31.715Z,9.711781
2022-09-11T03:12:32.707Z,9.712090
2022-09-11T03:13:31.706Z,9.712140
2022-09-11T03:14:31.694Z,9.712116
2022-09-11T03:15:31.707Z,9.712227
2022-09-11T03:16:31.721Z,9.712345
2022-09-11T03:17:31.668Z,9.712274
2022-09-11T03:18:32.309Z,9.712038
2022-09-11T03:19:31.657Z,9.711995
2022-09-11T03:20:31.710Z,9.712045
2022-09-11T03:21:31.641Z,9.712042
2022-09-11T03:22:31.633Z,9.712066
2022-09-11T03:23:31.614Z,9.711991
2022-09-11T03:24:31.609Z,9.712086
2022-09-11T03:25:31.610Z,9.712140
2022-09-11T03:26:31.589Z,9.712319
2022-09-11T03:27:31.599Z,9.712366
2022-09-11T03:28:31.581Z,9.712369
2022-09-11T03:29:31.568Z,9.712519
2022-09-11T03:30:31.559Z,9.712459
2022-09-11T03:31:34.464Z,9.712474
2022-09-11T03:32:33.316Z,9.712621
2022-09-11T03:33:31.562Z,9.712729
2022-09-11T03:34:31.528Z,9.712882
2022-09-11T03:35:31.517Z,9.712542
2022-09-11T03:36:31.516Z,9.712516
2022-09-11T03:37:31.508Z,9.712194
2022-09-11T03:38:31.491Z,9.712297
2022-09-11T03:39:31.492Z,9.712218
2022-09-11T03:40:31.477Z,9.712110
2022-09-11T03:41:32.345Z,9.712221
2022-09-11T03:42:31.484Z,9.712280
2022-09-11T03:43:31.462Z,9.712427
2022-09-11T03:44:31.448Z,9.712557
2022-09-11T03:45:31.477Z,9.712178
2022-09-11T03:46:31.438Z,9.712007
2022-09-11T03:47:31.429Z,9.712102
2022-09-11T03:48:31.429Z,9.712101
2022-09-11T03:49:31.412Z,9.712102
2022-09-11T03:50:31.418Z,9.711663
2022-09-11T03:51:31.397Z,9.711621
2022-09-11T03:52:31.405Z,9.711589
2022-09-11T03:53:31.372Z,9.711530
2022-09-11T03:54:31.369Z,9.711790
2022-09-11T03:55:31.366Z,9.711636
2022-09-11T03:56:31.356Z,9.711415
2022-09-11T03:57:31.341Z,9.711429
2022-09-11T03:58:31.340Z,9.711399
2022-09-11T03:59:31.328Z,9.711595
2022-09-11T04:00:32.329Z,9.711736
2022-09-11T04:01:31.317Z,9.711594
2022-09-11T04:02:31.298Z,9.711584
2022-09-11T04:03:31.289Z,9.711551
2022-09-11T04:04:31.310Z,9.711572
2022-09-11T04:05:31.294Z,9.711522
2022-09-11T04:06:31.274Z,9.711529
2022-09-11T04:07:31.274Z,9.711528
2022-09-11T04:08:31.257Z,9.711668
2022-09-11T04:09:31.269Z,9.711759
2022-09-11T04:10:31.252Z,9.711744
2022-09-11T04:11:34.407Z,9.711744
2022-09-11T04:12:33.214Z,9.711745
2022-09-11T04:13:31.225Z,9.711696
2022-09-11T04:14:31.202Z,9.711731
2022-09-11T04:15:31.216Z,9.711555
2022-09-11T04:16:31.251Z,9.711457
2022-09-11T04:17:31.173Z,9.711464
2022-09-11T04:18:31.179Z,9.711778
2022-09-11T04:19:31.165Z,9.711483
2022-09-11T04:20:31.151Z,9.711640
2022-09-11T04:21:31.163Z,9.711582
2022-09-11T04:22:31.136Z,9.711669
2022-09-11T04:23:31.139Z,9.711564
2022-09-11T04:24:31.119Z,9.711642
2022-09-11T04:25:31.129Z,9.711576
2022-09-11T04:26:31.128Z,9.711671
2022-09-11T04:27:31.100Z,9.711752
2022-09-11T04:28:31.111Z,9.711893
2022-09-11T04:29:31.081Z,9.712039
2022-09-11T04:30:31.081Z,9.711802
2022-09-11T04:31:31.123Z,9.711740
2022-09-11T04:32:31.061Z,9.711461
2022-09-11T04:33:31.046Z,9.711625
2022-09-11T04:34:31.045Z,9.711655
2022-09-11T04:35:31.042Z,9.711523
2022-09-11T04:36:31.031Z,9.711683
2022-09-11T04:37:31.033Z,9.711633
2022-09-11T04:38:31.043Z,9.711711
2022-09-11T04:39:31.041Z,9.711591
2022-09-11T04:40:31.009Z,9.711557
2022-09-11T04:41:30.985Z,9.711578
2022-09-11T04:42:30.971Z,9.711533
2022-09-11T04:43:30.970Z,9.711491
2022-09-11T04:44:30.962Z,9.711504
2022-09-11T04:45:30.967Z,9.711563
2022-09-11T04:46:30.949Z,9.711497
2022-09-11T04:47:30.943Z,9.711389
2022-09-11T04:48:30.929Z,9.711510
2022-09-11T04:49:30.936Z,9.711588
2022-09-11T04:50:30.907Z,9.711511
2022-09-11T04:51:30.909Z,9.711510
2022-09-11T04:52:30.903Z,9.711580
2022-09-11T04:53:30.963Z,9.711582
2022-09-11T04:54:31.834Z,9.711552
2022-09-11T04:55:31.418Z,9.711625
2022-09-11T04:56:30.885Z,9.711597
2022-09-11T04:57:30.871Z,9.711541
2022-09-11T04:58:30.845Z,9.711534
2022-09-11T04:59:30.836Z,9.711496
2022-09-11T05:00:30.841Z,9.711547
2022-09-11T05:01:30.838Z,9.711559
2022-09-11T05:02:30.816Z,9.711613
2022-09-11T05:03:30.813Z,9.711586
2022-09-11T05:04:30.807Z,9.711558
2022-09-11T05:05:30.788Z,9.711529
2022-09-11T05:06:30.794Z,9.711622
2022-09-11T05:07:30.777Z,9.711748
2022-09-11T05:08:31.772Z,9.711712
2022-09-11T05:09:30.751Z,9.711681
2022-09-11T05:10:30.748Z,9.711783
2022-09-11T05:11:30.759Z,9.711632
2022-09-11T05:12:30.755Z,9.711618
2022-09-11T05:13:35.602Z,9.711587
2022-09-11T05:14:32.750Z,9.711688
2022-09-11T05:15:30.720Z,9.711695
2022-09-11T05:16:30.803Z,9.711596
2022-09-11T05:17:30.708Z,9.711665
2022-09-11T05:18:30.684Z,9.711686
2022-09-11T05:19:30.684Z,9.711794
2022-09-11T05:20:30.675Z,9.711606
2022-09-11T05:21:30.651Z,9.711529
2022-09-11T05:22:30.687Z,9.711599
2022-09-11T05:23:31.636Z,9.711584
2022-09-11T05:24:30.645Z,9.711806
2022-09-11T05:25:30.621Z,9.711906
2022-09-11T05:26:30.610Z,9.711973
2022-09-11T05:27:30.616Z,9.711873
2022-09-11T05:28:30.609Z,9.712049
2022-09-11T05:29:32.766Z,9.711424
2022-09-11T05:30:31.589Z,9.712004
2022-09-11T05:31:30.615Z,9.712056
2022-09-11T05:32:31.385Z,9.711936
2022-09-11T05:33:30.594Z,9.712121
2022-09-11T05:34:30.556Z,9.711989
2022-09-11T05:35:32.489Z,9.711958
2022-09-11T05:36:31.586Z,9.711800
2022-09-11T05:37:30.524Z,9.711838
2022-09-11T05:38:30.534Z,9.711873
2022-09-11T05:39:30.522Z,9.711801
2022-09-11T05:40:30.510Z,9.711907
2022-09-11T05:41:30.491Z,9.711930
2022-09-11T05:42:30.485Z,9.712157
2022-09-11T05:43:30.733Z,9.712031
2022-09-11T05:44:31.522Z,9.711989
2022-09-11T05:45:30.482Z,9.712132
2022-09-11T05:46:30.638Z,9.711859
2022-09-11T05:47:31.311Z,9.711838
2022-09-11T05:48:33.408Z,9.711637
2022-09-11T05:49:30.505Z,9.711610
2022-09-11T05:50:30.436Z,9.711591
2022-09-11T05:51:30.497Z,9.711618
2022-09-11T05:52:30.456Z,9.711702
2022-09-11T05:53:30.425Z,9.711775
2022-09-11T05:54:30.423Z,9.711867
2022-09-11T05:55:30.506Z,9.712020
2022-09-11T05:56:30.385Z,9.712140
2022-09-11T05:57:30.398Z,9.712099
2022-09-11T05:58:30.555Z,9.712052
2022-09-11T05:59:31.371Z,9.712131
2022-09-11T06:00:30.418Z,9.712060
2022-09-11T06:01:30.486Z,9.712142
2022-09-11T06:02:30.551Z,9.712382
2022-09-11T06:03:30.430Z,9.712140
2022-09-11T06:04:30.391Z,9.711788
2022-09-11T06:05:30.487Z,9.711549
2022-09-11T06:06:30.362Z,9.711425
2022-09-11T06:07:30.412Z,9.711779
2022-09-11T06:08:30.404Z,9.711909
2022-09-11T06:09:30.294Z,9.711849
2022-09-11T06:10:30.367Z,9.711653
2022-09-11T06:11:30.293Z,9.711702
2022-09-11T06:12:30.247Z,9.711704
2022-09-11T06:13:30.256Z,9.711670
2022-09-11T06:14:30.261Z,9.711713
2022-09-11T06:15:46.020Z,9.711747
2022-09-11T06:16:32.243Z,9.711691
2022-09-11T06:17:30.216Z,9.711680
2022-09-11T06:18:30.206Z,9.711682
2022-09-11T06:19:30.241Z,9.711680
2022-09-11T06:20:30.207Z,9.711671
2022-09-11T06:21:30.175Z,9.711668
2022-09-11T06:22:30.217Z,9.711684
2022-09-11T06:23:30.238Z,9.711679
2022-09-11T06:24:30.196Z,9.711664
2022-09-11T06:25:30.196Z,9.711703
2022-09-11T06:26:30.148Z,9.711719
2022-09-11T06:27:30.127Z,9.711710
2022-09-11T06:28:30.116Z,9.711711
2022-09-11T06:29:30.106Z,9.711702
2022-09-11T06:30:30.169Z,9.711749
2022-09-11T06:31:30.100Z,9.711711
2022-09-11T06:32:30.089Z,9.711634
2022-09-11T06:33:30.074Z,9.711613
2022-09-11T06:34:30.061Z,9.711668
2022-09-11T06:35:30.055Z,9.711823
2022-09-11T06:36:30.079Z,9.712464
2022-09-11T06:37:30.050Z,9.712464
2022-09-11T06:38:30.029Z,9.712464
2022-09-11T06:39:30.037Z,9.712464
2022-09-11T06:40:30.015Z,9.712213
2022-09-11T06:41:30.017Z,9.711697
2022-09-11T06:42:30.005Z,9.712592
2022-09-11T06:43:29.996Z,9.712305
2022-09-11T06:44:29.988Z,9.712425
2022-09-11T06:45:30.056Z,9.712133
2022-09-11T06:46:29.995Z,9.711926
2022-09-11T06:47:29.966Z,9.712127
2022-09-11T06:48:29.963Z,9.711881
2022-09-11T06:49:29.942Z,9.711777
2022-09-11T06:50:33.985Z,9.711386
2022-09-11T06:51:31.940Z,9.711671
2022-09-11T06:52:29.926Z,9.711498
2022-09-11T06:53:29.943Z,9.711407
2022-09-11T06:54:29.909Z,9.711448
2022-09-11T06:55:29.906Z,9.711518
2022-09-11T06:56:29.901Z,9.711682
2022-09-11T06:57:29.888Z,9.712057
2022-09-11T06:58:29.889Z,9.711714
2022-09-11T06:59:29.864Z,9.712082
2022-09-11T07:00:29.872Z,9.711937
2022-09-11T07:01:30.031Z,9.711180
2022-09-11T07:02:29.852Z,9.711067
2022-09-11T07:03:29.852Z,9.711676
2022-09-11T07:04:29.819Z,9.711576
2022-09-11T07:05:29.823Z,9.711673
2022-09-11T07:06:29.811Z,9.711684
2022-09-11T07:07:29.801Z,9.711608
2022-09-11T07:08:29.797Z,9.711618
2022-09-11T07:09:29.782Z,9.711747
2022-09-11T07:10:29.820Z,9.711879
2022-09-11T07:11:30.768Z,9.711602
2022-09-11T07:12:29.768Z,9.711350
2022-09-11T07:13:29.756Z,9.711351
2022-09-11T07:14:29.739Z,9.711647
2022-09-11T07:15:29.735Z,9.711767
2022-09-11T07:16:29.774Z,9.711789
2022-09-11T07:17:29.721Z,9.711839
2022-09-11T07:18:29.896Z,9.711871
2022-09-11T07:19:29.712Z,9.711871
2022-09-11T07:20:29.702Z,9.711871
2022-09-11T07:21:29.688Z,9.712023
2022-09-11T07:22:29.679Z,9.712301
2022-09-11T07:23:29.672Z,9.712335
2022-09-11T07:24:29.668Z,9.712111
2022-09-11T07:25:29.675Z,9.712064
2022-09-11T07:26:29.658Z,9.711987
2022-09-11T07:27:29.672Z,9.711803
2022-09-11T07:28:29.641Z,9.711838
2022-09-11T07:29:29.632Z,9.711987
2022-09-11T07:30:29.675Z,9.711957
2022-09-11T07:31:29.637Z,9.711757
2022-09-11T07:32:29.613Z,9.712039
2022-09-11T07:33:29.591Z,9.711912
2022-09-11T07:34:29.585Z,9.711873
2022-09-11T07:35:29.602Z,9.711656
2022-09-11T07:36:29.570Z,9.711721
2022-09-11T07:37:29.562Z,9.711598
2022-09-11T07:38:29.612Z,9.711777
2022-09-11T07:39:29.550Z,9.711645
2022-09-11T07:40:29.539Z,9.711647
2022-09-11T07:41:29.534Z,9.711901
2022-09-11T07:42:29.550Z,9.711951
2022-09-11T07:43:29.518Z,9.711934
2022-09-11T07:44:29.511Z,9.711996
2022-09-11T07:45:29.536Z,9.711768
2022-09-11T07:46:30.491Z,9.711645
2022-09-11T07:47:29.482Z,9.711558
2022-09-11T07:48:29.477Z,9.711841
2022-09-11T07:49:29.469Z,9.711438
2022-09-11T07:50:29.467Z,9.711667
2022-09-11T07:51:29.445Z,9.711347
2022-09-11T07:52:29.438Z,9.711799
2022-09-11T07:53:29.449Z,9.711725
2022-09-11T07:54:30.407Z,9.711786
2022-09-11T07:55:29.416Z,9.711614
2022-09-11T07:56:29.407Z,9.711751
2022-09-11T07:57:29.398Z,9.711721
2022-09-11T07:58:29.397Z,9.711710
2022-09-11T07:59:29.391Z,9.711672
2022-09-11T08:00:32.042Z,9.711697
2022-09-11T08:01:29.419Z,9.711635
2022-09-11T08:02:29.404Z,9.711647
2022-09-11T08:03:30.359Z,9.711596
2022-09-11T08:04:29.340Z,9.711545
2022-09-11T08:05:29.333Z,9.711571
2022-09-11T08:06:29.318Z,9.711624
2022-09-11T08:07:29.314Z,9.711591
2022-09-11T08:08:29.323Z,9.711609
2022-09-11T08:09:29.301Z,9.711582
2022-09-11T08:10:29.997Z,9.711552
2022-09-11T08:11:29.288Z,9.711581
2022-09-11T08:12:29.275Z,9.711582
2022-09-11T08:13:29.298Z,9.711596
2022-09-11T08:14:29.258Z,9.711588
2022-09-11T08:15:29.272Z,9.711576
2022-09-11T08:16:29.262Z,9.711576
2022-09-11T08:17:29.236Z,9.711571
2022-09-11T08:18:29.223Z,9.711591
2022-09-11T08:19:29.252Z,9.711600
2022-09-11T08:20:29.914Z,9.711642
2022-09-11T08:21:29.206Z,9.711683
2022-09-11T08:22:29.198Z,9.711659
2022-09-11T08:23:29.213Z,9.711705
2022-09-11T08:24:29.180Z,9.711734
2022-09-11T08:25:29.160Z,9.711671
2022-09-11T08:26:30.184Z,9.711686
2022-09-11T08:27:29.193Z,9.711709
2022-09-11T08:28:29.180Z,9.711656
2022-09-11T08:40:37.037Z,9.711598
2022-09-11T08:41:37.039Z,9.711746
2022-09-11T08:42:37.048Z,9.711800
2022-09-11T08:43:37.062Z,9.711426
2022-09-11T08:44:39.210Z,9.711226
2022-09-11T08:45:38.024Z,9.711359
2022-09-11T08:46:37.000Z,9.711336
2022-09-11T08:47:37.002Z,9.711229
2022-09-11T08:48:36.967Z,9.711559
2022-09-11T08:49:37.963Z,9.711761
2022-09-11T08:50:36.974Z,9.711795
2022-09-11T08:51:37.473Z,9.711623
2022-09-11T08:52:36.958Z,9.711675
2022-09-11T08:53:36.937Z,9.711832
2022-09-11T08:54:36.947Z,9.711740
2022-09-11T08:55:36.924Z,9.711731
2022-09-11T08:56:36.942Z,9.711694
2022-09-11T08:57:36.931Z,9.711737
2022-09-11T08:58:36.900Z,9.711628
2022-09-11T08:59:36.906Z,9.711679
2022-09-11T09:00:36.884Z,9.711656
2022-09-11T09:01:36.895Z,9.711635
2022-09-11T09:02:36.866Z,9.711572
2022-09-11T09:03:36.868Z,9.711632
2022-09-11T09:04:36.879Z,9.711639
2022-09-11T09:05:36.842Z,9.711844
2022-09-11T09:06:36.840Z,9.711687
2022-09-11T09:07:36.828Z,9.711740
2022-09-11T09:08:36.813Z,9.711570
2022-09-11T09:09:36.807Z,9.711803
2022-09-11T09:10:36.895Z,9.711750
2022-09-11T09:11:36.799Z,9.711686
2022-09-11T09:12:36.812Z,9.711559
2022-09-11T09:13:36.783Z,9.711726
2022-09-11T09:14:36.764Z,9.711587
2022-09-11T09:15:36.785Z,9.711914
2022-09-11T09:16:36.751Z,9.711964
2022-09-11T09:17:36.745Z,9.711967
2022-09-11T09:18:36.792Z,9.711731
2022-09-11T09:19:36.723Z,9.711891
2022-09-11T09:20:36.716Z,9.711783
2022-09-11T09:21:37.406Z,9.711847
2022-09-11T09:22:36.701Z,9.711889
2022-09-11T09:23:36.688Z,9.711930
2022-09-11T09:24:36.697Z,9.712183
2022-09-11T09:25:36.684Z,9.712115
2022-09-11T09:26:38.544Z,9.711974
2022-09-11T09:27:37.925Z,9.711967
2022-09-11T09:28:36.647Z,9.711951
2022-09-11T09:29:36.660Z,9.711848
2022-09-11T09:30:36.638Z,9.711769
2022-09-11T09:31:36.622Z,9.711736
2022-09-11T09:32:36.651Z,9.711783
2022-09-11T09:33:36.603Z,9.711791
2022-09-11T09:34:36.614Z,9.711791
2022-09-11T09:35:36.593Z,9.711690
2022-09-11T09:36:36.642Z,9.711702
2022-09-11T09:37:36.586Z,9.711695
2022-09-11T09:38:36.570Z,9.711725
2022-09-11T09:39:36.658Z,9.711695
2022-09-11T09:40:36.563Z,9.711654
2022-09-11T09:41:36.575Z,9.711673
2022-09-11T09:42:36.555Z,9.711654
2022-09-11T09:43:36.530Z,9.711691
2022-09-11T09:44:37.413Z,9.711759
2022-09-11T09:45:36.574Z,9.711731
2022-09-11T09:46:37.426Z,9.711755
2022-09-11T09:47:36.507Z,9.711671
2022-09-11T09:48:36.503Z,9.711711
2022-09-11T09:49:36.491Z,9.711679
2022-09-11T09:50:36.538Z,9.711658
2022-09-11T09:51:36.496Z,9.711684
2022-09-11T09:52:36.468Z,9.711658
2022-09-11T09:53:36.469Z,9.711588
2022-09-11T09:54:36.633Z,9.711647
2022-09-11T09:55:36.459Z,9.711700
2022-09-11T09:56:36.439Z,9.711728
2022-09-11T09:57:36.459Z,9.711782
2022-09-11T09:58:36.568Z,9.711721
2022-09-11T09:59:36.406Z,9.711714
2022-09-11T10:00:36.418Z,9.711729
2022-09-11T10:01:36.457Z,9.711680
2022-09-11T10:02:36.419Z,9.711680
2022-09-11T10:03:36.394Z,9.711699
2022-09-11T10:04:36.367Z,9.711679
2022-09-11T10:05:36.369Z,9.711715
2022-09-11T10:06:36.355Z,9.711703
2022-09-11T10:07:36.337Z,9.711695
2022-09-11T10:08:36.337Z,9.711659
2022-09-11T10:09:36.322Z,9.711697
2022-09-11T10:10:36.345Z,9.711662
2022-09-11T10:11:36.344Z,9.711703
2022-09-11T10:12:36.364Z,9.711714
2022-09-11T10:13:37.321Z,9.711713
2022-09-11T10:14:52.479Z,9.711654
2022-09-11T10:15:38.295Z,9.711707
2022-09-11T10:16:36.320Z,9.711675
2022-09-11T10:17:37.920Z,9.711689
2022-09-11T10:18:36.247Z,9.711671
2022-09-11T10:19:36.230Z,9.711623
2022-09-11T10:20:36.287Z,9.711639
2022-09-11T10:21:36.244Z,9.711555
2022-09-11T10:22:37.070Z,9.711624
2022-09-11T10:23:36.213Z,9.711688
2022-09-11T10:24:36.211Z,9.711609
2022-09-11T10:25:36.195Z,9.711665
2022-09-11T10:26:36.213Z,9.711633
2022-09-11T10:27:36.180Z,9.711619
2022-09-11T10:28:36.167Z,9.711643
2022-09-11T10:29:36.164Z,9.711641
2022-09-11T10:30:36.198Z,9.711669
2022-09-11T10:31:36.151Z,9.711629
2022-09-11T10:32:37.006Z,9.711642
2022-09-11T10:33:36.135Z,9.711648
2022-09-11T10:34:36.123Z,9.711703
2022-09-11T10:35:36.105Z,9.711695
2022-09-11T10:36:36.114Z,9.711653
2022-09-11T10:37:36.134Z,9.711663
2022-09-11T10:38:41.176Z,9.711627
2022-09-11T10:39:38.125Z,9.711632
2022-09-11T10:40:36.079Z,9.711608
2022-09-11T10:41:36.075Z,9.711625
2022-09-11T10:42:36.071Z,9.711630
2022-09-11T10:43:36.061Z,9.711658
2022-09-11T10:44:36.931Z,9.711680
2022-09-11T10:45:36.100Z,9.711633
2022-09-11T10:46:39.073Z,9.711649
2022-09-11T10:47:36.025Z,9.711731
2022-09-11T10:48:36.020Z,9.711586
2022-09-11T10:49:36.018Z,9.711540
2022-09-11T10:50:36.059Z,9.711757
2022-09-11T10:51:35.986Z,9.711576
2022-09-11T10:52:35.989Z,9.711774
2022-09-11T10:53:35.978Z,9.711694
2022-09-11T10:54:35.962Z,9.711742
2022-09-11T10:55:35.947Z,9.711795
2022-09-11T10:56:35.932Z,9.711753
2022-09-11T10:57:36.937Z,9.711692
2022-09-11T10:58:35.936Z,9.711658
2022-09-11T10:59:35.917Z,9.711506
2022-09-11T11:00:35.908Z,9.711620
2022-09-11T11:01:35.954Z,9.711728
2022-09-11T11:02:35.905Z,9.711847
2022-09-11T11:03:35.891Z,9.711717
2022-09-11T11:04:36.442Z,9.711747
2022-09-11T11:05:35.871Z,9.711582
2022-09-11T11:06:35.864Z,9.711616
2022-09-11T11:07:35.866Z,9.711638
2022-09-11T11:08:35.855Z,9.711632
2022-09-11T11:09:35.845Z,9.711561
2022-09-11T11:10:35.859Z,9.711619
2022-09-11T11:11:35.825Z,9.711537
2022-09-11T11:12:35.829Z,9.711794
2022-09-11T11:13:35.809Z,9.711894
2022-09-11T11:14:35.811Z,9.712038
2022-09-11T11:15:35.832Z,9.711904
2022-09-11T11:16:35.786Z,9.711856
2022-09-11T11:17:35.790Z,9.711581
2022-09-11T11:18:35.775Z,9.711663
2022-09-11T11:19:35.772Z,9.711662
2022-09-11T11:20:35.768Z,9.711685
2022-09-11T11:21:35.756Z,9.711617
2022-09-11T11:22:35.760Z,9.711622
2022-09-11T11:23:35.757Z,9.711537
2022-09-11T11:24:35.732Z,9.711700
2022-09-11T11:25:35.726Z,9.711659
2022-09-11T11:26:35.709Z,9.711641
2022-09-11T11:27:35.716Z,9.711846
2022-09-11T11:28:35.696Z,9.711773
2022-09-11T11:29:35.705Z,9.711826
2022-09-11T11:30:35.678Z,9.711720
2022-09-11T11:31:35.669Z,9.711565
2022-09-11T11:32:35.666Z,9.711697
2022-09-11T11:33:35.681Z,9.711606
2022-09-11T11:34:35.684Z,9.711555
2022-09-11T11:35:35.638Z,9.711401
2022-09-11T11:36:35.632Z,9.711502
2022-09-11T11:37:35.621Z,9.711509
2022-09-11T11:38:35.618Z,9.711552
2022-09-11T11:39:35.659Z,9.711342
2022-09-11T11:40:35.644Z,9.711292
2022-09-11T11:41:35.587Z,9.711272
2022-09-11T11:42:35.612Z,9.711442
2022-09-11T11:43:35.587Z,9.711672
2022-09-11T11:44:35.571Z,9.712060
2022-09-11T11:45:36.614Z,9.711993
2022-09-11T11:46:35.601Z,9.711933
2022-09-11T11:47:35.549Z,9.711905
2022-09-11T11:48:35.537Z,9.712058
2022-09-11T11:49:35.554Z,9.711999
2022-09-11T11:50:35.528Z,9.711879
2022-09-11T11:51:35.517Z,9.711585
2022-09-11T11:52:35.499Z,9.711374
2022-09-11T11:53:35.492Z,9.711633
2022-09-11T11:54:35.513Z,9.711555
2022-09-11T11:55:35.487Z,9.711613
2022-09-11T11:56:36.460Z,9.711609
2022-09-11T11:57:35.465Z,9.711568
2022-09-11T11:58:35.467Z,9.711531